Time;durP1;ratioP1;P1;durP2;ratioP2;P2;SDS_P1;SDS_P2;PMS_P1;PMS_P2;Temp;Humidity;BMP_temperature;BMP_pressure;BME280_temperature;BME280_humidity;BME280_pressure;Samples;Min_cycle;Max_cycle;Signal;HPM_P1;HPM_P2
2023/07/15 00:00:58;;;;;;;4.47;2.80;;;;;;;24.08;46.95;100358.78;4986610;28;20018;-72
2023/07/15 00:03:23;;;;;;;4.40;2.50;;;;;;;24.07;47.08;100356.31;4986669;28;20478;-72
2023/07/15 00:05:49;;;;;;;5.15;2.65;;;;;;;24.07;47.13;100350.97;4969642;28;20053;-71
2023/07/15 00:08:15;;;;;;;4.63;2.33;;;;;;;24.07;47.18;100349.13;4986860;28;20375;-73
2023/07/15 00:10:43;;;;;;;4.13;2.30;;;;;;;24.06;46.94;100352.78;4986577;28;20057;-72
2023/07/15 00:13:12;;;;;;;5.22;2.30;;;;;;;24.05;47.27;100347.66;4986637;28;20026;-71
2023/07/15 00:15:37;;;;;;;4.53;2.65;;;;;;;24.06;46.88;100347.47;4969385;28;20479;-72
2023/07/15 00:18:03;;;;;;;4.15;2.20;;;;;;;24.07;47.06;100354.47;4986935;28;20065;-72
2023/07/15 00:20:28;;;;;;;5.78;2.80;;;;;;;24.05;46.86;100348.50;4986292;28;20042;-72
2023/07/15 00:22:54;;;;;;;3.45;2.10;;;;;;;24.05;46.80;100350.31;4986337;28;20467;-71
2023/07/15 00:25:20;;;;;;;5.75;2.33;;;;;;;24.06;47.16;100349.31;4986994;28;20022;-72
2023/07/15 00:27:47;;;;;;;4.30;2.42;;;;;;;24.05;46.67;100351.16;4987123;28;20033;-70
2023/07/15 00:30:18;;;;;;;5.82;2.05;;;;;;;24.04;46.62;100354.00;4986391;28;20386;-71
2023/07/15 00:32:45;;;;;;;5.22;2.47;;;;;;;24.05;47.14;100356.47;4987922;28;20125;-72
2023/07/15 00:35:29;;;;;;;5.05;2.45;;;;;;;24.04;47.02;100348.66;4988632;28;20118;-71
2023/07/15 00:37:56;;;;;;;4.68;2.78;;;;;;;24.05;46.77;100348.50;4988200;28;20026;-72
2023/07/15 00:40:22;;;;;;;4.15;2.17;;;;;;;24.02;46.88;100354.16;4987656;28;20057;-72
2023/07/15 00:42:53;;;;;;;4.30;2.17;;;;;;;24.03;46.68;100363.78;4987274;28;20035;-72
2023/07/15 00:45:18;;;;;;;4.40;2.10;;;;;;;24.04;46.67;100354.00;4986784;28;20383;-73
2023/07/15 00:47:55;;;;;;;5.70;2.50;;;;;;;24.01;46.84;100355.16;4987486;28;20022;-72
2023/07/15 00:50:20;;;;;;;6.32;2.95;;;;;;;24.04;46.98;100365.47;4987129;28;20037;-73
2023/07/15 00:52:45;;;;;;;3.90;2.40;;;;;;;24.02;46.54;100367.47;4987653;28;20038;-72
2023/07/15 00:55:12;;;;;;;3.80;2.30;;;;;;;24.04;47.06;100367.31;4988917;28;20448;-72
2023/07/15 00:57:38;;;;;;;4.10;2.30;;;;;;;24.03;46.93;100368.28;4990719;28;20034;-72
2023/07/15 01:00:09;;;;;;;5.22;2.53;;;;;;;24.02;46.77;100361.31;4989764;28;20575;-72
2023/07/15 01:02:34;;;;;;;4.43;2.15;;;;;;;24.04;46.56;100367.31;4988000;28;20023;-72
2023/07/15 01:05:00;;;;;;;4.63;2.10;;;;;;;24.02;46.94;100363.97;4988313;28;20048;-72
2023/07/15 01:07:25;;;;;;;4.63;2.40;;;;;;;24.01;46.74;100357.81;4988567;28;20030;-72
2023/07/15 01:09:51;;;;;;;4.10;2.28;;;;;;;24.03;46.41;100362.97;4987559;28;20094;-72
2023/07/15 01:12:16;;;;;;;4.43;2.30;;;;;;;24.02;46.57;100370.13;4987939;28;20440;-72
2023/07/15 01:14:44;;;;;;;4.30;2.03;;;;;;;24.04;46.40;100372.63;4987861;28;20026;-72
2023/07/15 01:17:09;;;;;;;4.82;2.35;;;;;;;24.02;46.48;100370.13;4988459;28;20114;-73
2023/07/15 01:19:34;;;;;;;4.45;2.08;;;;;;;24.02;46.76;100369.28;4987999;28;20070;-71
2023/07/15 01:22:01;;;;;;;4.10;2.00;;;;;;;24.03;46.67;100376.28;4988012;28;20062;-72
2023/07/15 01:24:27;;;;;;;4.10;2.53;;;;;;;24.02;46.41;100364.81;4988237;28;20026;-72
2023/07/15 01:27:02;;;;;;;3.75;2.08;;;;;;;24.00;46.26;100364.13;4989683;28;20037;-73
2023/07/15 01:29:27;;;;;;;4.40;2.38;;;;;;;24.02;46.63;100366.63;4989364;28;20041;-72
2023/07/15 01:31:53;;;;;;;3.60;2.00;;;;;;;24.03;46.47;100368.28;4989482;28;20128;-72
2023/07/15 01:34:19;;;;;;;4.40;2.00;;;;;;;23.99;46.10;100362.50;4990594;28;20038;-71
2023/07/15 01:36:45;;;;;;;4.47;2.35;;;;;;;24.00;46.48;100366.78;4992354;28;20038;-72
2023/07/15 01:39:10;;;;;;;3.72;2.08;;;;;;;24.02;46.43;100369.28;4992207;28;20038;-72
2023/07/15 01:41:36;;;;;;;4.50;2.15;;;;;;;24.00;46.45;100363.31;4993789;28;20054;-72
2023/07/15 01:44:04;;;;;;;3.97;2.08;;;;;;;24.00;46.56;100372.13;4992823;28;20121;-71
2023/07/15 01:46:30;;;;;;;3.92;2.38;;;;;;;23.98;46.10;100368.81;4992872;28;20038;-72
2023/07/15 01:48:59;;;;;;;3.80;2.10;;;;;;;23.99;46.64;100375.81;4992865;28;20640;-73
2023/07/15 01:51:24;;;;;;;3.47;2.05;;;;;;;24.00;46.14;100376.63;4993127;28;20125;-73
2023/07/15 01:53:50;;;;;;;3.88;1.80;;;;;;;23.98;46.59;100373.31;4992056;28;20121;-72
2023/07/15 01:56:15;;;;;;;4.90;2.28;;;;;;;23.98;46.16;100384.78;4989465;28;20093;-72
2023/07/15 01:58:40;;;;;;;4.40;2.00;;;;;;;23.97;46.08;100383.13;4989323;28;20133;-73
2023/07/15 02:01:05;;;;;;;4.07;2.07;;;;;;;23.99;46.10;100390.94;4989900;28;20069;-72
2023/07/15 02:03:31;;;;;;;3.60;1.90;;;;;;;23.97;45.95;100385.78;4988932;28;20346;-72
2023/07/15 02:05:56;;;;;;;4.50;1.85;;;;;;;23.99;46.43;100390.94;4989677;28;20031;-73
2023/07/15 02:08:22;;;;;;;3.45;2.05;;;;;;;23.99;46.49;100386.44;4988664;28;20468;-72
2023/07/15 02:10:48;;;;;;;4.35;2.10;;;;;;;23.97;46.60;100376.97;4989095;28;20085;-73
2023/07/15 02:13:14;;;;;;;4.13;2.22;;;;;;;23.98;46.57;100382.13;4987181;28;20150;-72
2023/07/15 02:15:40;;;;;;;3.88;1.98;;;;;;;23.98;46.51;100391.94;4989426;28;20101;-72
2023/07/15 02:18:05;;;;;;;5.30;2.08;;;;;;;23.98;46.62;100394.59;4988299;28;20060;-72
2023/07/15 02:20:30;;;;;;;5.03;2.17;;;;;;;23.99;46.49;100390.94;4989112;28;20110;-72
2023/07/15 02:22:56;;;;;;;4.27;2.10;;;;;;;23.98;46.13;100390.09;4988318;28;20037;-72
2023/07/15 02:25:21;;;;;;;3.90;2.00;;;;;;;23.97;45.91;100390.28;4988545;28;20259;-72
2023/07/15 02:27:47;;;;;;;8.00;2.42;;;;;;;23.98;46.49;100397.28;4989102;28;20037;-72
2023/07/15 02:30:12;;;;;;;3.92;2.15;;;;;;;23.97;46.40;100395.59;4988966;28;20034;-72
2023/07/15 02:32:40;;;;;;;3.90;1.85;;;;;;;23.94;46.00;100390.63;4989219;28;20022;-72
2023/07/15 02:35:08;;;;;;;4.60;2.20;;;;;;;23.94;45.98;100390.63;4988623;28;20065;-72
2023/07/15 02:37:35;;;;;;;3.80;2.00;;;;;;;23.94;46.12;100387.97;4989199;28;20097;-72
2023/07/15 02:40:01;;;;;;;4.35;2.08;;;;;;;23.96;46.20;100388.59;4989232;28;20038;-73
2023/07/15 02:42:26;;;;;;;3.75;2.00;;;;;;;23.95;46.58;100392.28;4989665;28;20344;-72
2023/07/15 02:44:51;;;;;;;4.82;2.00;;;;;;;23.93;46.56;100389.81;4989415;28;20030;-72
2023/07/15 02:47:17;;;;;;;4.30;2.00;;;;;;;23.94;46.49;100391.47;4990236;28;20077;-71
2023/07/15 02:49:42;;;;;;;4.32;2.20;;;;;;;23.96;46.37;100393.94;4989386;28;20270;-71
2023/07/15 02:52:08;;;;;;;4.97;2.33;;;;;;;23.94;46.17;100386.16;4989107;28;20041;-72
2023/07/15 02:54:33;;;;;;;4.47;2.20;;;;;;;23.93;46.39;100389.81;4989377;28;20027;-72
2023/07/15 02:56:59;;;;;;;3.83;2.07;;;;;;;23.94;46.53;100387.97;4989247;28;20044;-72
2023/07/15 02:59:24;;;;;;;3.97;1.92;;;;;;;23.92;45.85;100384.66;4989064;28;20261;-72
2023/07/15 03:01:49;;;;;;;5.00;2.42;;;;;;;23.95;46.12;100390.44;4989042;28;20030;-72
2023/07/15 03:04:15;;;;;;;3.35;1.88;;;;;;;23.94;46.51;100382.63;4989043;28;20026;-72
2023/07/15 03:06:41;;;;;;;4.28;2.10;;;;;;;23.93;46.30;100386.31;4988889;28;20045;-73
2023/07/15 03:09:06;;;;;;;3.85;1.80;;;;;;;23.93;46.10;100389.00;4987792;28;20043;-72
2023/07/15 03:11:32;;;;;;;2.92;1.90;;;;;;;23.92;46.28;100385.47;4988204;28;20026;-73
2023/07/15 03:13:57;;;;;;;3.35;2.00;;;;;;;23.91;46.29;100381.19;4988408;28;20030;-72
2023/07/15 03:16:23;;;;;;;4.40;2.05;;;;;;;23.92;46.22;100384.66;4988202;28;20092;-72
2023/07/15 03:18:48;;;;;;;3.50;1.83;;;;;;;23.91;46.41;100383.84;4987855;28;20417;-72
2023/07/15 03:21:14;;;;;;;4.07;1.80;;;;;;;23.92;45.92;100389.97;4986933;28;20037;-73
2023/07/15 03:23:39;;;;;;;3.63;1.95;;;;;;;23.89;46.33;100386.66;4987755;28;20069;-73
2023/07/15 03:26:04;;;;;;;4.80;2.58;;;;;;;23.89;45.85;100384.00;4987250;28;20064;-73
2023/07/15 03:28:30;;;;;;;4.70;2.13;;;;;;;23.90;46.25;100382.16;4987143;28;20030;-73
2023/07/15 03:30:55;;;;;;;4.38;2.00;;;;;;;23.90;46.30;100384.84;4986023;28;20030;-72
2023/07/15 03:33:21;;;;;;;4.18;2.10;;;;;;;23.89;46.39;100389.34;4987893;28;20097;-73
2023/07/15 03:35:46;;;;;;;3.22;1.80;;;;;;;23.90;45.77;100385.66;4987180;28;20563;-72
2023/07/15 03:38:12;;;;;;;3.17;1.83;;;;;;;23.89;45.99;100392.00;4987120;28;20117;-72
2023/07/15 03:40:37;;;;;;;5.32;2.10;;;;;;;23.89;45.96;100392.00;4987983;28;20486;-72
2023/07/15 03:43:02;;;;;;;3.30;1.85;;;;;;;23.89;45.93;100389.34;4987827;28;20030;-72
2023/07/15 03:45:29;;;;;;;5.28;2.20;;;;;;;23.88;45.90;100384.19;4987955;28;20375;-72
2023/07/15 03:47:55;;;;;;;5.20;2.20;;;;;;;23.88;46.30;100387.66;4987136;28;20109;-72
2023/07/15 03:50:20;;;;;;;3.75;1.90;;;;;;;23.88;46.16;100386.84;4986893;28;20666;-72
2023/07/15 03:52:46;;;;;;;4.40;2.00;;;;;;;23.88;45.96;100390.31;4987333;28;20033;-73
2023/07/15 03:55:11;;;;;;;4.10;2.13;;;;;;;23.88;46.17;100384.19;4987154;28;20026;-73
2023/07/15 03:57:37;;;;;;;4.32;2.10;;;;;;;23.86;45.98;100376.38;4987109;28;20029;-73
2023/07/15 04:00:06;;;;;;;3.75;1.77;;;;;;;23.89;46.04;100392.00;4987234;28;20038;-73
2023/07/15 04:02:32;;;;;;;3.83;2.03;;;;;;;23.87;45.92;100386.00;4986292;28;20164;-73
2023/07/15 04:04:57;;;;;;;4.85;1.95;;;;;;;23.88;45.90;100382.34;4986539;28;21095;-72
2023/07/15 04:07:22;;;;;;;4.03;2.10;;;;;;;23.89;46.29;100383.16;4987162;28;20053;-72
2023/07/15 04:09:47;;;;;;;3.92;1.80;;;;;;;23.87;46.19;100378.00;4986794;28;20050;-72
2023/07/15 04:12:13;;;;;;;3.22;1.80;;;;;;;23.87;46.01;100377.19;4987463;28;20045;-73
2023/07/15 04:14:38;;;;;;;3.80;2.03;;;;;;;23.86;45.75;100378.19;4985780;28;20039;-73
2023/07/15 04:17:04;;;;;;;3.78;2.08;;;;;;;23.87;46.24;100382.50;4986191;28;20034;-70
2023/07/15 04:19:29;;;;;;;4.70;2.05;;;;;;;23.86;45.95;100378.19;4987308;28;20489;-72
2023/07/15 04:21:54;;;;;;;4.30;2.08;;;;;;;23.87;45.91;100378.00;4986426;28;20026;-72
2023/07/15 04:24:19;;;;;;;4.82;2.00;;;;;;;23.86;45.95;100381.69;4987008;28;20043;-72
2023/07/15 04:26:45;;;;;;;5.65;2.15;;;;;;;23.86;45.94;100380.84;4986669;28;20040;-72
2023/07/15 04:29:10;;;;;;;3.72;1.80;;;;;;;23.84;45.87;100380.19;4986619;28;20117;-72
2023/07/15 04:31:37;;;;;;;3.97;2.13;;;;;;;23.86;45.93;100388.81;4985985;28;20044;-71
2023/07/15 04:34:02;;;;;;;3.88;2.08;;;;;;;23.85;46.46;100390.66;4986680;28;20160;-72
2023/07/15 04:36:28;;;;;;;4.78;2.45;;;;;;;23.84;46.44;100396.16;4986773;28;20459;-71
2023/07/15 04:38:53;;;;;;;3.70;1.90;;;;;;;23.85;46.26;100395.16;4987187;28;20022;-72
2023/07/15 04:41:19;;;;;;;4.53;1.80;;;;;;;23.84;46.28;100394.31;4986611;28;20038;-72
2023/07/15 04:43:44;;;;;;;3.88;1.90;;;;;;;23.85;46.26;100395.16;4987135;28;20034;-72
2023/07/15 04:46:10;;;;;;;4.38;2.08;;;;;;;23.85;46.37;100400.50;4986543;28;20356;-71
2023/07/15 04:48:35;;;;;;;3.63;1.98;;;;;;;23.85;46.00;100411.97;4987106;28;20443;-72
2023/07/15 04:51:00;;;;;;;5.15;2.33;;;;;;;23.85;46.06;100409.28;4987439;28;20041;-71
2023/07/15 04:53:26;;;;;;;4.60;2.00;;;;;;;23.85;46.56;100411.13;4987555;28;20057;-72
2023/07/15 04:55:52;;;;;;;4.47;2.15;;;;;;;23.84;46.47;100396.97;4987421;28;20755;-71
2023/07/15 04:58:18;;;;;;;4.15;2.00;;;;;;;23.79;46.16;100401.16;4987231;28;20022;-72
2023/07/15 05:00:48;;;;;;;4.80;2.28;;;;;;;23.83;46.21;100406.00;4986254;28;20096;-72
2023/07/15 05:03:14;;;;;;;4.05;2.00;;;;;;;23.84;46.67;100404.16;4986681;28;20038;-73
2023/07/15 05:05:40;;;;;;;5.45;2.15;;;;;;;23.83;46.68;100394.47;4985856;28;20430;-72
2023/07/15 05:08:10;;;;;;;4.40;2.17;;;;;;;23.84;46.16;100396.97;4986965;28;20557;-71
2023/07/15 05:10:36;;;;;;;5.75;2.10;;;;;;;23.84;46.28;100401.47;4973615;28;20113;-71
2023/07/15 05:13:01;;;;;;;5.05;2.00;;;;;;;23.83;46.21;100407.75;4970859;28;20038;-71
2023/07/15 05:15:28;;;;;;;4.88;2.10;;;;;;;23.84;46.78;100409.47;4971105;28;20016;-70
2023/07/15 05:17:53;;;;;;;4.28;1.95;;;;;;;23.86;46.57;100410.13;4969687;28;20372;-72
2023/07/15 05:20:19;;;;;;;4.15;2.10;;;;;;;23.85;46.77;100405.81;4971239;28;20074;-71
2023/07/15 05:22:44;;;;;;;4.10;1.88;;;;;;;23.87;46.37;100404.63;4971270;28;20030;-72
2023/07/15 05:25:10;;;;;;;4.20;1.80;;;;;;;23.86;46.58;100396.81;4970168;28;20116;-72
2023/07/15 05:27:35;;;;;;;4.65;2.10;;;;;;;23.86;46.51;100395.00;4968567;28;20368;-70
2023/07/15 05:30:00;;;;;;;3.78;1.90;;;;;;;23.85;46.21;100406.63;4968981;28;20093;-72
2023/07/15 05:32:26;;;;;;;4.68;2.13;;;;;;;23.86;46.51;100410.97;4970226;28;20035;-72
2023/07/15 05:34:51;;;;;;;3.63;1.90;;;;;;;23.85;46.58;100400.50;4970014;28;20038;-72
2023/07/15 05:37:16;;;;;;;4.93;2.05;;;;;;;23.85;46.42;100396.00;4970529;28;20039;-72
2023/07/15 05:39:44;;;;;;;4.20;1.98;;;;;;;23.85;46.32;100411.13;4970233;28;20034;-72
2023/07/15 05:42:10;;;;;;;5.47;2.22;;;;;;;23.84;46.42;100407.63;4970078;28;20404;-72
2023/07/15 05:44:35;;;;;;;5.13;1.80;;;;;;;23.83;46.42;100411.31;4970363;28;20027;-72
2023/07/15 05:47:00;;;;;;;4.47;1.93;;;;;;;23.84;46.60;100415.59;4969881;28;20034;-71
2023/07/15 05:49:26;;;;;;;3.75;2.13;;;;;;;23.86;46.90;100420.75;4969445;28;20268;-71
2023/07/15 05:51:51;;;;;;;4.65;2.20;;;;;;;23.86;46.93;100418.09;4970352;28;20383;-73
2023/07/15 05:54:16;;;;;;;5.03;2.15;;;;;;;23.86;47.02;100428.75;4970555;28;20058;-72
2023/07/15 05:56:41;;;;;;;5.65;2.20;;;;;;;23.87;46.53;100430.41;4969844;28;20030;-73
2023/07/15 05:59:07;;;;;;;4.70;2.08;;;;;;;23.87;46.88;100425.09;4969793;28;20455;-73
2023/07/15 06:01:32;;;;;;;4.10;1.88;;;;;;;23.85;46.67;100425.25;4970163;28;20054;-71
2023/07/15 06:03:58;;;;;;;3.60;1.98;;;;;;;23.82;46.53;100409.59;4969867;28;20026;-73
2023/07/15 06:06:24;;;;;;;4.07;2.00;;;;;;;23.85;46.82;100425.25;4970023;28;20081;-71
2023/07/15 06:08:49;;;;;;;3.80;1.88;;;;;;;23.83;47.14;100427.28;4972124;28;20475;-70
2023/07/15 06:11:16;;;;;;;4.10;1.90;;;;;;;23.83;46.81;100423.72;4989078;28;20041;-72
2023/07/15 06:13:41;;;;;;;4.70;1.90;;;;;;;23.83;46.72;100429.94;4971476;28;20468;-74
2023/07/15 06:16:06;;;;;;;4.10;1.95;;;;;;;23.89;47.71;100436.38;4986395;28;20038;-74
2023/07/15 06:18:32;;;;;;;4.05;1.90;;;;;;;23.92;47.44;100433.38;4987377;28;20035;-74
2023/07/15 06:20:57;;;;;;;3.65;1.60;;;;;;;23.92;47.87;100432.56;4988049;28;20038;-74
2023/07/15 06:23:22;;;;;;;3.90;1.63;;;;;;;23.93;47.37;100431.56;4988965;28;20030;-73
2023/07/15 06:25:48;;;;;;;5.35;2.10;;;;;;;23.88;47.96;100434.75;4987059;28;20037;-72
2023/07/15 06:28:13;;;;;;;6.32;1.60;;;;;;;23.86;48.15;100429.59;4988565;28;20026;-73
2023/07/15 06:30:38;;;;;;;4.90;2.10;;;;;;;23.87;48.80;100427.75;4987788;28;20477;-72
2023/07/15 06:33:04;;;;;;;5.47;1.83;;;;;;;23.86;48.54;100426.94;4987526;28;20022;-73
2023/07/15 06:35:29;;;;;;;6.07;1.83;;;;;;;23.86;48.52;100439.38;4969556;28;20053;-72
2023/07/15 06:37:54;;;;;;;6.05;1.95;;;;;;;23.83;49.24;100429.06;4987795;28;20030;-74
2023/07/15 06:40:20;;;;;;;4.55;1.80;;;;;;;23.79;49.05;100433.91;4986814;28;20033;-71
2023/07/15 06:42:46;;;;;;;3.50;1.50;;;;;;;23.81;48.69;100444.38;4986951;28;20026;-70
2023/07/15 06:45:12;;;;;;;3.65;1.80;;;;;;;23.80;49.48;100440.88;4987280;28;20394;-72
2023/07/15 06:47:38;;;;;;;5.10;1.75;;;;;;;23.78;49.57;100434.88;4987264;28;20378;-77
2023/07/15 06:50:03;;;;;;;4.20;1.60;;;;;;;23.78;49.47;100432.22;4986946;28;20034;-72
2023/07/15 06:52:29;;;;;;;5.30;1.60;;;;;;;23.80;49.87;100426.72;4987848;28;20034;-76
2023/07/15 06:54:54;;;;;;;5.18;1.67;;;;;;;23.77;49.61;100414.63;4989058;28;20110;-75
2023/07/15 06:57:19;;;;;;;3.70;1.50;;;;;;;23.79;49.90;100425.09;4988700;28;20030;-72
2023/07/15 06:59:45;;;;;;;5.13;1.92;;;;;;;23.72;50.19;100409.81;4988242;28;20045;-72
2023/07/15 07:02:10;;;;;;;4.78;1.80;;;;;;;23.78;50.42;100421.59;4988484;28;20038;-69
2023/07/15 07:04:35;;;;;;;4.10;1.88;;;;;;;23.77;49.87;100430.59;4988413;28;20061;-67
2023/07/15 07:07:01;;;;;;;4.13;1.80;;;;;;;23.79;50.16;100422.44;4988743;28;20058;-67
2023/07/15 07:09:26;;;;;;;5.00;1.70;;;;;;;23.81;50.11;100421.25;4988255;28;20129;-67
2023/07/15 07:11:51;;;;;;;5.40;1.83;;;;;;;23.81;50.04;100418.59;4988139;28;20125;-67
2023/07/15 07:14:18;;;;;;;4.00;1.50;;;;;;;23.84;49.75;100428.91;4988659;28;20034;-68
2023/07/15 07:16:43;;;;;;;3.80;1.80;;;;;;;23.82;50.07;100422.09;4987963;28;20042;-67
2023/07/15 07:19:08;;;;;;;8.10;1.80;;;;;;;23.82;49.97;100425.56;4986483;28;20093;-68
2023/07/15 07:21:34;;;;;;;3.72;1.63;;;;;;;23.82;50.41;100428.22;4985723;28;20030;-68
2023/07/15 07:23:59;;;;;;;4.72;1.70;;;;;;;23.83;50.03;100435.25;4986714;28;20022;-68
2023/07/15 07:26:24;;;;;;;4.50;1.90;;;;;;;23.83;50.37;100440.56;4987114;28;20022;-68
2023/07/15 07:28:50;;;;;;;2.92;1.30;;;;;;;23.82;50.12;100438.88;4986466;28;20029;-68
2023/07/15 07:31:17;;;;;;;5.10;1.77;;;;;;;23.84;50.02;100436.91;4985417;28;20514;-68
2023/07/15 07:33:43;;;;;;;4.40;1.30;;;;;;;23.83;50.68;100440.56;4986722;28;20820;-68
2023/07/15 07:36:09;;;;;;;4.18;1.55;;;;;;;23.85;50.48;100449.22;4987035;28;20120;-67
2023/07/15 07:38:35;;;;;;;5.13;1.80;;;;;;;23.88;50.48;100448.03;4987150;28;20032;-68
2023/07/15 07:41:10;;;;;;;3.92;1.40;;;;;;;23.87;50.73;100449.84;4986947;28;20030;-68
2023/07/15 07:43:38;;;;;;;3.00;1.60;;;;;;;23.90;50.76;100436.22;4987425;28;20027;-69
2023/07/15 07:46:08;;;;;;;3.38;1.55;;;;;;;23.90;50.39;100435.38;4986925;28;21094;-69
2023/07/15 07:48:35;;;;;;;3.90;1.60;;;;;;;23.93;50.62;100436.88;4987385;28;20034;-69
2023/07/15 07:51:02;;;;;;;4.72;1.95;;;;;;;23.93;50.78;100440.38;4969227;28;20399;-67
2023/07/15 07:53:29;;;;;;;4.63;1.60;;;;;;;23.94;50.70;100441.19;4987810;28;20031;-69
2023/07/15 07:55:54;;;;;;;3.85;1.50;;;;;;;23.94;50.35;100443.84;4984533;28;20041;-68
2023/07/15 07:58:20;;;;;;;3.42;1.60;;;;;;;23.96;50.80;100436.50;4985566;28;20034;-68
2023/07/15 08:00:47;;;;;;;4.45;1.73;;;;;;;23.97;50.43;100427.53;4986118;28;20104;-67
2023/07/15 08:03:14;;;;;;;3.72;1.60;;;;;;;23.97;50.55;100435.53;4986530;28;20030;-67
2023/07/15 08:05:47;;;;;;;4.78;1.38;;;;;;;23.97;50.61;100448.81;4984791;28;20065;-66
2023/07/15 08:08:14;;;;;;;3.20;1.42;;;;;;;23.98;50.93;100455.81;4985737;28;20030;-69
2023/07/15 08:10:41;;;;;;;3.60;1.92;;;;;;;23.98;51.05;100461.16;4986450;28;20137;-69
2023/07/15 08:13:08;;;;;;;4.28;1.60;;;;;;;23.99;51.12;100449.47;4986727;28;20088;-67
2023/07/15 08:15:36;;;;;;;3.72;1.60;;;;;;;24.00;51.04;100445.81;4986066;28;20053;-68
2023/07/15 08:18:03;;;;;;;3.85;1.50;;;;;;;24.01;51.10;100450.16;4985984;28;20030;-69
2023/07/15 08:20:32;;;;;;;4.50;1.75;;;;;;;24.00;50.85;100441.31;4969358;28;20031;-68
2023/07/15 08:22:59;;;;;;;3.75;2.00;;;;;;;24.02;51.35;100455.31;4985974;28;20032;-68
2023/07/15 08:25:26;;;;;;;3.30;1.35;;;;;;;24.02;51.20;100451.78;4986245;28;20042;-68
2023/07/15 08:27:53;;;;;;;3.13;1.50;;;;;;;24.03;51.33;100462.28;4968174;28;20042;-68
2023/07/15 08:30:19;;;;;;;2.60;1.30;;;;;;;24.03;51.49;100467.59;4985218;28;20121;-68
2023/07/15 08:32:45;;;;;;;2.70;1.33;;;;;;;24.01;51.27;100450.97;4986450;28;20034;-69
2023/07/15 08:35:10;;;;;;;4.05;1.50;;;;;;;24.02;51.21;100460.63;4986781;28;20088;-68
2023/07/15 08:37:35;;;;;;;2.78;1.40;;;;;;;24.03;51.41;100456.94;4986588;28;20072;-68
2023/07/15 08:40:01;;;;;;;2.30;1.23;;;;;;;24.02;51.01;100462.44;4985087;28;20061;-68
2023/07/15 08:42:27;;;;;;;4.85;1.48;;;;;;;24.03;51.05;100464.09;4987139;28;20117;-68
2023/07/15 08:44:53;;;;;;;4.15;1.55;;;;;;;24.02;51.61;100473.09;4990764;28;20066;-67
2023/07/15 08:47:23;;;;;;;3.42;1.40;;;;;;;24.03;51.43;100477.41;4989004;28;20085;-68
2023/07/15 08:49:49;;;;;;;3.03;1.40;;;;;;;24.01;51.27;100487.41;4988534;28;20057;-68
2023/07/15 08:52:18;;;;;;;3.38;1.40;;;;;;;24.01;51.58;100482.91;4990644;28;20113;-68
2023/07/15 08:54:44;;;;;;;3.60;1.50;;;;;;;24.01;51.21;100479.44;4984740;28;20034;-68
2023/07/15 08:57:11;;;;;;;3.42;1.58;;;;;;;24.01;51.18;100495.41;4990035;28;20032;-67
2023/07/15 08:59:36;;;;;;;3.05;1.35;;;;;;;24.00;51.11;100502.53;4990255;28;20343;-76
2023/07/15 09:02:01;;;;;;;2.95;1.48;;;;;;;24.01;51.44;100498.06;4991107;28;20145;-75
2023/07/15 09:04:27;;;;;;;3.25;1.40;;;;;;;24.03;51.35;100506.69;4990208;28;20042;-74
2023/07/15 09:06:54;;;;;;;4.68;1.55;;;;;;;24.01;50.99;100500.72;4989790;28;20037;-76
2023/07/15 09:09:30;;;;;;;4.30;1.35;;;;;;;23.99;51.32;100505.38;4989669;28;20057;-75
2023/07/15 09:11:59;;;;;;;3.72;1.38;;;;;;;24.01;50.91;100506.88;4990044;28;20034;-75
2023/07/15 09:14:25;;;;;;;3.35;1.50;;;;;;;24.01;51.16;100501.53;4989185;28;20030;-77
2023/07/15 09:16:52;;;;;;;4.72;1.30;;;;;;;24.00;50.92;100494.56;4989596;28;20451;-77
2023/07/15 09:19:19;;;;;;;3.50;1.50;;;;;;;24.01;50.71;100496.22;4989921;28;20038;-75
2023/07/15 09:22:05;;;;;;;2.80;1.45;;;;;;;24.00;50.93;100501.72;4989932;28;20039;-75
2023/07/15 09:24:31;;;;;;;3.10;1.75;;;;;;;24.02;51.17;100510.34;4988086;28;20033;-77
2023/07/15 09:26:59;;;;;;;4.13;1.58;;;;;;;24.02;51.18;100505.03;4989480;28;20042;-74
2023/07/15 09:29:24;;;;;;;3.42;1.50;;;;;;;24.03;51.24;100501.38;4987028;28;20056;-78
2023/07/15 09:31:50;;;;;;;2.92;1.40;;;;;;;24.02;50.88;100507.69;4989515;28;20033;-75
2023/07/15 09:34:17;;;;;;;2.67;1.38;;;;;;;24.01;50.95;100498.06;4989173;28;20113;-74
2023/07/15 09:36:43;;;;;;;4.07;1.60;;;;;;;24.01;51.12;100514.84;4989466;28;20033;-72
2023/07/15 09:39:17;;;;;;;3.60;1.52;;;;;;;24.01;51.17;100512.19;4988821;28;20034;-74
2023/07/15 09:41:42;;;;;;;3.40;1.42;;;;;;;24.02;51.15;100511.19;4989266;28;20098;-74
2023/07/15 09:44:09;;;;;;;3.35;1.40;;;;;;;24.03;51.18;100522.66;4989580;28;20042;-76
2023/07/15 09:46:34;;;;;;;3.78;1.63;;;;;;;24.02;51.18;100516.53;4989468;28;20035;-81
2023/07/15 09:49:00;;;;;;;3.42;1.60;;;;;;;24.01;51.58;100522.00;4989451;28;20459;-78
2023/07/15 09:51:26;;;;;;;4.50;1.58;;;;;;;24.04;51.55;100542.97;4989820;28;20383;-78
2023/07/15 09:53:54;;;;;;;2.75;1.40;;;;;;;24.03;51.42;100547.44;4971875;28;20041;-78
2023/07/15 09:56:24;;;;;;;3.20;1.55;;;;;;;24.05;51.33;100544.63;4988194;28;20049;-72
2023/07/15 09:58:52;;;;;;;3.97;1.85;;;;;;;24.06;51.61;100551.59;4989471;28;20476;-72
2023/07/15 10:01:27;;;;;;;3.42;1.60;;;;;;;24.04;51.51;100551.78;4986820;28;20356;-73
2023/07/15 10:04:02;;;;;;;2.95;1.00;;;;;;;24.13;51.01;100557.06;4987074;28;20113;-72
2023/07/15 10:06:28;;;;;;;3.03;1.40;;;;;;;24.20;50.70;100534.91;4988288;28;20038;-71
2023/07/15 10:08:54;;;;;;;3.63;1.55;;;;;;;24.24;50.89;100546.03;4987675;28;20042;-73
2023/07/15 10:11:20;;;;;;;4.88;1.60;;;;;;;24.29;51.23;100537.53;4987968;28;20129;-73
2023/07/15 10:13:45;;;;;;;4.60;1.88;;;;;;;24.31;50.89;100533.72;4988249;28;20150;-73
2023/07/15 10:16:11;;;;;;;4.43;1.73;;;;;;;24.33;51.48;100531.69;4987934;28;20065;-73
2023/07/15 10:18:36;;;;;;;5.97;1.77;;;;;;;24.37;51.33;100524.19;4988067;28;20038;-74
2023/07/15 10:21:05;;;;;;;2.88;1.40;;;;;;;24.39;51.16;100501.72;4988310;28;20455;-74
2023/07/15 10:23:32;;;;;;;4.10;1.77;;;;;;;24.40;51.57;100508.72;4988288;28;20034;-77
2023/07/15 10:26:05;;;;;;;4.93;1.88;;;;;;;24.39;51.39;100515.03;4987983;28;20026;-74
2023/07/15 10:28:36;;;;;;;3.93;1.50;;;;;;;24.33;52.02;100523.72;4985105;28;20023;-73
2023/07/15 10:31:06;;;;;;;4.82;1.50;;;;;;;24.30;51.87;100520.56;4986807;28;20030;-74
2023/07/15 10:33:31;;;;;;;3.88;1.98;;;;;;;24.25;51.99;100513.09;4988916;28;20049;-73
2023/07/15 10:35:57;;;;;;;3.50;1.55;;;;;;;24.26;52.01;100517.44;4986822;28;20027;-74
2023/07/15 10:38:26;;;;;;;5.35;1.90;;;;;;;24.23;52.58;100510.59;4988571;28;20050;-72
2023/07/15 10:41:02;;;;;;;6.22;2.20;;;;;;;24.24;52.74;100506.09;4988455;28;20458;-72
2023/07/15 10:43:34;;;;;;;4.70;2.08;;;;;;;24.23;52.95;100520.44;4988786;28;20030;-72
2023/07/15 10:46:07;;;;;;;8.57;2.40;;;;;;;24.22;53.13;100516.94;4987128;28;20049;-73
2023/07/15 10:48:33;;;;;;;8.07;2.20;;;;;;;24.24;53.05;100527.41;4988253;28;20018;-72
2023/07/15 10:51:02;;;;;;;4.80;2.20;;;;;;;24.22;53.35;100516.94;4985108;28;20042;-75
2023/07/15 10:53:32;;;;;;;5.25;2.10;;;;;;;24.33;53.00;100517.56;4985227;28;20028;-72
2023/07/15 10:56:03;;;;;;;4.95;2.00;;;;;;;24.37;52.19;100533.03;4970983;28;20070;-73
2023/07/15 10:58:32;;;;;;;6.35;1.70;;;;;;;24.40;51.94;100534.50;4988164;28;20034;-74
2023/07/15 11:01:00;;;;;;;5.80;2.83;;;;;;;24.44;51.63;100525.16;4987104;28;20049;-73
2023/07/15 11:03:26;;;;;;;5.85;1.77;;;;;;;24.47;51.80;100530.16;4987126;28;20065;-72
2023/07/15 11:05:58;;;;;;;5.97;2.03;;;;;;;24.50;51.71;100529.81;4986469;28;20034;-72
2023/07/15 11:08:23;;;;;;;5.75;2.08;;;;;;;24.52;51.86;100518.97;4987478;28;20382;-74
2023/07/15 11:10:49;;;;;;;5.10;1.77;;;;;;;24.55;51.45;100527.44;4987214;28;20057;-72
2023/07/15 11:13:17;;;;;;;7.68;2.10;;;;;;;24.58;51.57;100529.78;4987803;28;20076;-72
2023/07/15 11:15:46;;;;;;;3.90;1.73;;;;;;;24.60;51.29;100521.63;4987620;28;20026;-75
2023/07/15 11:18:21;;;;;;;8.25;2.10;;;;;;;24.58;51.64;100524.44;4987129;28;20038;-73
2023/07/15 11:20:48;;;;;;;5.10;2.40;;;;;;;24.62;50.91;100517.78;4985654;28;20343;-72